sensor_id;sensor_type;location;lat;lon;timestamp;P1;durP1;ratioP1;P2;durP2;ratioP2
66593;SDS011;53450;42.584;23.366;2022-08-24T00:01:52;17.63;;;10.38;;
66593;SDS011;53450;42.584;23.366;2022-08-24T00:04:18;17.00;;;10.70;;
66593;SDS011;53450;42.584;23.366;2022-08-24T00:06:43;21.67;;;10.88;;
66593;SDS011;53450;42.584;23.366;2022-08-24T00:09:09;15.68;;;11.82;;
66593;SDS011;53450;42.584;23.366;2022-08-24T00:11:34;19.00;;;12.00;;
66593;SDS011;53450;42.584;23.366;2022-08-24T00:14:00;20.10;;;12.27;;
66593;SDS011;53450;42.584;23.366;2022-08-24T00:16:25;23.73;;;12.07;;
66593;SDS011;53450;42.584;23.366;2022-08-24T00:18:51;13.98;;;10.35;;
66593;SDS011;53450;42.584;23.366;2022-08-24T00:21:17;20.20;;;10.65;;
66593;SDS011;53450;42.584;23.366;2022-08-24T00:23:43;15.05;;;10.32;;
66593;SDS011;53450;42.584;23.366;2022-08-24T00:26:09;14.68;;;10.73;;
66593;SDS011;53450;42.584;23.366;2022-08-24T00:28:35;17.70;;;11.25;;
66593;SDS011;53450;42.584;23.366;2022-08-24T00:31:01;16.27;;;10.75;;
66593;SDS011;53450;42.584;23.366;2022-08-24T00:35:48;19.42;;;11.00;;
66593;SDS011;53450;42.584;23.366;2022-08-24T00:38:14;17.67;;;11.38;;
66593;SDS011;53450;42.584;23.366;2022-08-24T00:40:41;18.38;;;11.27;;
66593;SDS011;53450;42.584;23.366;2022-08-24T00:43:10;17.10;;;12.02;;
66593;SDS011;53450;42.584;23.366;2022-08-24T00:45:47;20.25;;;12.30;;
66593;SDS011;53450;42.584;23.366;2022-08-24T00:48:31;18.02;;;12.48;;
66593;SDS011;53450;42.584;23.366;2022-08-24T00:51:02;17.70;;;13.30;;
66593;SDS011;53450;42.584;23.366;2022-08-24T00:53:35;18.75;;;12.80;;
66593;SDS011;53450;42.584;23.366;2022-08-24T00:56:05;25.70;;;13.65;;
66593;SDS011;53450;42.584;23.366;2022-08-24T00:58:39;22.25;;;12.82;;
66593;SDS011;53450;42.584;23.366;2022-08-24T01:01:10;19.77;;;14.60;;
66593;SDS011;53450;42.584;23.366;2022-08-24T01:03:39;21.77;;;13.38;;
66593;SDS011;53450;42.584;23.366;2022-08-24T01:06:06;22.40;;;14.68;;
66593;SDS011;53450;42.584;23.366;2022-08-24T01:08:33;28.38;;;15.48;;
66593;SDS011;53450;42.584;23.366;2022-08-24T01:11:03;26.80;;;16.17;;
66593;SDS011;53450;42.584;23.366;2022-08-24T01:13:43;23.83;;;14.45;;
66593;SDS011;53450;42.584;23.366;2022-08-24T01:16:11;18.88;;;13.45;;
66593;SDS011;53450;42.584;23.366;2022-08-24T01:18:39;21.85;;;14.05;;
66593;SDS011;53450;42.584;23.366;2022-08-24T01:21:20;20.15;;;12.43;;
66593;SDS011;53450;42.584;23.366;2022-08-24T01:24:01;20.35;;;12.80;;
66593;SDS011;53450;42.584;23.366;2022-08-24T01:26:31;24.35;;;14.13;;
66593;SDS011;53450;42.584;23.366;2022-08-24T01:29:03;18.15;;;11.77;;
66593;SDS011;53450;42.584;23.366;2022-08-24T01:31:34;16.65;;;12.13;;
66593;SDS011;53450;42.584;23.366;2022-08-24T01:34:00;17.10;;;12.50;;
66593;SDS011;53450;42.584;23.366;2022-08-24T01:36:42;21.45;;;15.85;;
66593;SDS011;53450;42.584;23.366;2022-08-24T01:41:48;23.55;;;14.95;;
66593;SDS011;53450;42.584;23.366;2022-08-24T01:44:14;20.55;;;14.07;;
66593;SDS011;53450;42.584;23.366;2022-08-24T01:46:43;20.25;;;14.55;;
66593;SDS011;53450;42.584;23.366;2022-08-24T01:49:10;30.08;;;15.05;;
66593;SDS011;53450;42.584;23.366;2022-08-24T01:51:35;24.90;;;15.45;;
66593;SDS011;53450;42.584;23.366;2022-08-24T01:54:02;25.85;;;15.98;;
66593;SDS011;53450;42.584;23.366;2022-08-24T01:56:29;26.45;;;15.80;;
66593;SDS011;53450;42.584;23.366;2022-08-24T01:58:56;23.65;;;14.13;;
66593;SDS011;53450;42.584;23.366;2022-08-24T02:01:49;24.73;;;13.93;;
66593;SDS011;53450;42.584;23.366;2022-08-24T02:04:18;19.38;;;12.50;;
66593;SDS011;53450;42.584;23.366;2022-08-24T02:06:45;19.73;;;12.98;;
66593;SDS011;53450;42.584;23.366;2022-08-24T02:09:13;18.38;;;12.75;;
66593;SDS011;53450;42.584;23.366;2022-08-24T02:11:39;16.58;;;12.13;;
66593;SDS011;53450;42.584;23.366;2022-08-24T02:14:09;23.07;;;12.50;;
66593;SDS011;53450;42.584;23.366;2022-08-24T02:16:35;21.25;;;12.65;;
66593;SDS011;53450;42.584;23.366;2022-08-24T02:19:01;33.72;;;14.35;;
66593;SDS011;53450;42.584;23.366;2022-08-24T02:21:52;23.13;;;12.67;;
66593;SDS011;53450;42.584;23.366;2022-08-24T02:24:20;16.15;;;12.32;;
66593;SDS011;53450;42.584;23.366;2022-08-24T02:26:46;30.10;;;13.55;;
66593;SDS011;53450;42.584;23.366;2022-08-24T02:29:12;18.67;;;12.95;;
66593;SDS011;53450;42.584;23.366;2022-08-24T02:32:02;20.15;;;13.07;;
66593;SDS011;53450;42.584;23.366;2022-08-24T02:34:29;16.45;;;12.55;;
66593;SDS011;53450;42.584;23.366;2022-08-24T02:36:54;17.77;;;12.02;;
66593;SDS011;53450;42.584;23.366;2022-08-24T02:39:20;23.67;;;13.18;;
66593;SDS011;53450;42.584;23.366;2022-08-24T02:41:47;24.90;;;14.18;;
66593;SDS011;53450;42.584;23.366;2022-08-24T02:44:14;22.80;;;15.27;;
66593;SDS011;53450;42.584;23.366;2022-08-24T02:46:40;27.58;;;16.75;;
66593;SDS011;53450;42.584;23.366;2022-08-24T02:49:07;24.05;;;15.10;;
66593;SDS011;53450;42.584;23.366;2022-08-24T02:51:33;22.02;;;14.65;;
66593;SDS011;53450;42.584;23.366;2022-08-24T02:53:59;17.85;;;13.55;;
66593;SDS011;53450;42.584;23.366;2022-08-24T02:56:27;19.50;;;12.60;;
66593;SDS011;53450;42.584;23.366;2022-08-24T02:58:58;20.63;;;11.45;;
66593;SDS011;53450;42.584;23.366;2022-08-24T03:01:24;19.35;;;12.70;;
66593;SDS011;53450;42.584;23.366;2022-08-24T03:03:52;18.27;;;11.80;;
66593;SDS011;53450;42.584;23.366;2022-08-24T03:06:18;16.65;;;10.43;;
66593;SDS011;53450;42.584;23.366;2022-08-24T03:08:44;16.25;;;10.85;;
66593;SDS011;53450;42.584;23.366;2022-08-24T03:11:11;13.90;;;10.98;;
66593;SDS011;53450;42.584;23.366;2022-08-24T03:13:37;16.65;;;11.55;;
66593;SDS011;53450;42.584;23.366;2022-08-24T03:16:04;19.35;;;11.27;;
66593;SDS011;53450;42.584;23.366;2022-08-24T03:18:31;17.40;;;12.10;;
66593;SDS011;53450;42.584;23.366;2022-08-24T03:21:22;14.25;;;10.75;;
66593;SDS011;53450;42.584;23.366;2022-08-24T03:23:51;19.30;;;10.57;;
66593;SDS011;53450;42.584;23.366;2022-08-24T03:26:17;12.35;;;9.65;;
66593;SDS011;53450;42.584;23.366;2022-08-24T03:28:43;12.70;;;9.23;;
66593;SDS011;53450;42.584;23.366;2022-08-24T03:31:08;10.32;;;8.27;;
66593;SDS011;53450;42.584;23.366;2022-08-24T03:33:34;12.13;;;7.38;;
66593;SDS011;53450;42.584;23.366;2022-08-24T03:36:01;11.63;;;7.63;;
66593;SDS011;53450;42.584;23.366;2022-08-24T03:38:27;10.77;;;8.00;;
66593;SDS011;53450;42.584;23.366;2022-08-24T03:40:54;9.80;;;7.43;;
66593;SDS011;53450;42.584;23.366;2022-08-24T03:43:20;8.50;;;6.97;;
66593;SDS011;53450;42.584;23.366;2022-08-24T03:46:32;11.38;;;7.65;;
66593;SDS011;53450;42.584;23.366;2022-08-24T03:49:25;22.80;;;7.75;;
66593;SDS011;53450;42.584;23.366;2022-08-24T03:51:51;12.13;;;7.47;;
66593;SDS011;53450;42.584;23.366;2022-08-24T03:54:20;9.88;;;7.07;;
66593;SDS011;53450;42.584;23.366;2022-08-24T03:56:46;9.80;;;7.07;;
66593;SDS011;53450;42.584;23.366;2022-08-24T03:59:11;8.27;;;6.90;;
66593;SDS011;53450;42.584;23.366;2022-08-24T04:01:41;16.00;;;9.05;;
66593;SDS011;53450;42.584;23.366;2022-08-24T04:04:07;9.88;;;7.50;;
66593;SDS011;53450;42.584;23.366;2022-08-24T04:06:35;12.98;;;7.57;;
66593;SDS011;53450;42.584;23.366;2022-08-24T04:09:01;11.30;;;7.57;;
66593;SDS011;53450;42.584;23.366;2022-08-24T04:11:33;9.15;;;7.07;;
66593;SDS011;53450;42.584;23.366;2022-08-24T04:13:59;9.20;;;8.27;;
66593;SDS011;53450;42.584;23.366;2022-08-24T04:16:27;10.65;;;7.38;;
66593;SDS011;53450;42.584;23.366;2022-08-24T04:19:19;13.02;;;7.80;;
66593;SDS011;53450;42.584;23.366;2022-08-24T04:22:10;11.23;;;7.63;;
66593;SDS011;53450;42.584;23.366;2022-08-24T04:24:36;16.52;;;8.77;;
66593;SDS011;53450;42.584;23.366;2022-08-24T04:27:02;15.73;;;6.68;;
66593;SDS011;53450;42.584;23.366;2022-08-24T04:29:28;8.82;;;7.38;;
66593;SDS011;53450;42.584;23.366;2022-08-24T04:31:53;15.85;;;8.65;;
66593;SDS011;53450;42.584;23.366;2022-08-24T04:34:20;13.25;;;7.70;;
66593;SDS011;53450;42.584;23.366;2022-08-24T04:36:47;9.88;;;7.78;;
66593;SDS011;53450;42.584;23.366;2022-08-24T04:39:14;14.23;;;8.20;;
66593;SDS011;53450;42.584;23.366;2022-08-24T04:42:08;10.60;;;7.65;;
66593;SDS011;53450;42.584;23.366;2022-08-24T04:44:36;11.13;;;7.70;;
66593;SDS011;53450;42.584;23.366;2022-08-24T04:47:03;11.02;;;8.27;;
66593;SDS011;53450;42.584;23.366;2022-08-24T04:49:28;13.35;;;8.35;;
66593;SDS011;53450;42.584;23.366;2022-08-24T04:51:54;16.63;;;7.82;;
66593;SDS011;53450;42.584;23.366;2022-08-24T04:54:20;13.40;;;9.18;;
66593;SDS011;53450;42.584;23.366;2022-08-24T04:56:57;14.27;;;8.00;;
66593;SDS011;53450;42.584;23.366;2022-08-24T04:59:23;12.48;;;8.50;;
66593;SDS011;53450;42.584;23.366;2022-08-24T05:01:49;10.40;;;8.02;;
66593;SDS011;53450;42.584;23.366;2022-08-24T05:04:14;11.43;;;7.13;;
66593;SDS011;53450;42.584;23.366;2022-08-24T05:06:40;10.80;;;7.45;;
66593;SDS011;53450;42.584;23.366;2022-08-24T05:09:08;10.18;;;7.68;;
66593;SDS011;53450;42.584;23.366;2022-08-24T05:11:34;22.17;;;9.15;;
66593;SDS011;53450;42.584;23.366;2022-08-24T05:14:01;12.68;;;8.30;;
66593;SDS011;53450;42.584;23.366;2022-08-24T05:16:28;13.20;;;7.53;;
66593;SDS011;53450;42.584;23.366;2022-08-24T05:18:56;10.48;;;7.55;;
66593;SDS011;53450;42.584;23.366;2022-08-24T05:21:23;8.95;;;6.60;;
66593;SDS011;53450;42.584;23.366;2022-08-24T05:23:51;8.73;;;7.63;;
66593;SDS011;53450;42.584;23.366;2022-08-24T05:26:20;9.55;;;7.68;;
66593;SDS011;53450;42.584;23.366;2022-08-24T05:28:52;14.75;;;8.20;;
66593;SDS011;53450;42.584;23.366;2022-08-24T05:31:24;11.13;;;8.07;;
66593;SDS011;53450;42.584;23.366;2022-08-24T05:33:56;9.90;;;7.80;;
66593;SDS011;53450;42.584;23.366;2022-08-24T05:36:24;13.27;;;7.75;;
66593;SDS011;53450;42.584;23.366;2022-08-24T05:38:51;17.88;;;8.40;;
66593;SDS011;53450;42.584;23.366;2022-08-24T05:41:18;9.23;;;7.22;;
66593;SDS011;53450;42.584;23.366;2022-08-24T05:43:45;9.95;;;6.63;;
66593;SDS011;53450;42.584;23.366;2022-08-24T05:46:11;10.63;;;7.53;;
66593;SDS011;53450;42.584;23.366;2022-08-24T05:48:37;15.65;;;7.40;;
66593;SDS011;53450;42.584;23.366;2022-08-24T05:51:06;11.55;;;6.65;;
66593;SDS011;53450;42.584;23.366;2022-08-24T05:53:37;7.33;;;6.53;;
66593;SDS011;53450;42.584;23.366;2022-08-24T05:56:05;7.97;;;6.90;;
66593;SDS011;53450;42.584;23.366;2022-08-24T05:58:34;8.20;;;6.53;;
66593;SDS011;53450;42.584;23.366;2022-08-24T06:01:05;9.57;;;6.97;;
66593;SDS011;53450;42.584;23.366;2022-08-24T06:03:33;10.80;;;7.25;;
66593;SDS011;53450;42.584;23.366;2022-08-24T06:06:00;11.73;;;6.10;;
66593;SDS011;53450;42.584;23.366;2022-08-24T06:08:27;7.03;;;6.03;;
66593;SDS011;53450;42.584;23.366;2022-08-24T06:10:55;8.93;;;6.15;;
66593;SDS011;53450;42.584;23.366;2022-08-24T06:13:21;10.65;;;5.95;;
66593;SDS011;53450;42.584;23.366;2022-08-24T06:15:47;7.65;;;5.68;;
66593;SDS011;53450;42.584;23.366;2022-08-24T06:18:14;11.50;;;6.20;;
66593;SDS011;53450;42.584;23.366;2022-08-24T06:20:40;9.35;;;5.75;;
66593;SDS011;53450;42.584;23.366;2022-08-24T06:23:07;7.43;;;5.28;;
66593;SDS011;53450;42.584;23.366;2022-08-24T06:25:38;8.85;;;6.13;;
66593;SDS011;53450;42.584;23.366;2022-08-24T06:28:23;13.52;;;6.47;;
66593;SDS011;53450;42.584;23.366;2022-08-24T06:33:40;7.47;;;6.68;;
66593;SDS011;53450;42.584;23.366;2022-08-24T06:36:07;8.30;;;6.85;;
66593;SDS011;53450;42.584;23.366;2022-08-24T06:38:33;8.30;;;6.53;;
66593;SDS011;53450;42.584;23.366;2022-08-24T06:41:02;7.75;;;6.45;;
66593;SDS011;53450;42.584;23.366;2022-08-24T06:43:28;33.20;;;7.68;;
66593;SDS011;53450;42.584;23.366;2022-08-24T06:45:58;7.97;;;6.50;;
66593;SDS011;53450;42.584;23.366;2022-08-24T06:48:32;12.30;;;6.55;;
66593;SDS011;53450;42.584;23.366;2022-08-24T06:50:58;15.10;;;6.82;;
66593;SDS011;53450;42.584;23.366;2022-08-24T06:53:25;10.90;;;6.70;;
66593;SDS011;53450;42.584;23.366;2022-08-24T06:55:55;11.02;;;7.18;;
66593;SDS011;53450;42.584;23.366;2022-08-24T06:58:22;8.50;;;6.18;;
66593;SDS011;53450;42.584;23.366;2022-08-24T07:00:53;13.07;;;6.37;;
66593;SDS011;53450;42.584;23.366;2022-08-24T07:03:20;10.00;;;6.68;;
66593;SDS011;53450;42.584;23.366;2022-08-24T07:05:54;8.13;;;5.63;;
66593;SDS011;53450;42.584;23.366;2022-08-24T07:08:37;9.20;;;6.65;;
66593;SDS011;53450;42.584;23.366;2022-08-24T07:11:04;11.20;;;6.57;;
66593;SDS011;53450;42.584;23.366;2022-08-24T07:13:30;6.20;;;5.60;;
66593;SDS011;53450;42.584;23.366;2022-08-24T07:15:57;9.27;;;6.70;;
66593;SDS011;53450;42.584;23.366;2022-08-24T07:18:24;10.35;;;6.85;;
66593;SDS011;53450;42.584;23.366;2022-08-24T07:20:50;7.45;;;6.70;;
66593;SDS011;53450;42.584;23.366;2022-08-24T07:23:23;17.90;;;7.53;;
66593;SDS011;53450;42.584;23.366;2022-08-24T07:25:50;10.98;;;6.93;;
66593;SDS011;53450;42.584;23.366;2022-08-24T07:28:18;10.32;;;6.28;;
66593;SDS011;53450;42.584;23.366;2022-08-24T07:30:43;10.25;;;6.68;;
66593;SDS011;53450;42.584;23.366;2022-08-24T07:33:12;9.30;;;6.63;;
66593;SDS011;53450;42.584;23.366;2022-08-24T07:35:38;15.20;;;7.20;;
66593;SDS011;53450;42.584;23.366;2022-08-24T07:38:04;7.53;;;5.47;;
66593;SDS011;53450;42.584;23.366;2022-08-24T07:40:32;6.38;;;5.50;;
66593;SDS011;53450;42.584;23.366;2022-08-24T07:42:58;10.32;;;6.47;;
66593;SDS011;53450;42.584;23.366;2022-08-24T07:45:25;10.57;;;6.47;;
66593;SDS011;53450;42.584;23.366;2022-08-24T07:48:18;10.40;;;6.07;;
66593;SDS011;53450;42.584;23.366;2022-08-24T07:50:45;12.63;;;6.18;;
66593;SDS011;53450;42.584;23.366;2022-08-24T07:53:12;14.55;;;5.90;;
66593;SDS011;53450;42.584;23.366;2022-08-24T07:55:38;7.82;;;6.13;;
66593;SDS011;53450;42.584;23.366;2022-08-24T07:58:04;7.68;;;5.55;;
66593;SDS011;53450;42.584;23.366;2022-08-24T08:00:30;8.07;;;5.30;;
66593;SDS011;53450;42.584;23.366;2022-08-24T08:02:59;7.50;;;5.93;;
66593;SDS011;53450;42.584;23.366;2022-08-24T08:05:29;5.38;;;4.32;;
66593;SDS011;53450;42.584;23.366;2022-08-24T08:07:55;4.82;;;4.35;;
66593;SDS011;53450;42.584;23.366;2022-08-24T08:10:21;8.57;;;3.90;;
66593;SDS011;53450;42.584;23.366;2022-08-24T08:12:49;3.95;;;3.42;;
66593;SDS011;53450;42.584;23.366;2022-08-24T08:15:14;5.65;;;3.72;;
66593;SDS011;53450;42.584;23.366;2022-08-24T08:17:51;7.07;;;3.65;;
66593;SDS011;53450;42.584;23.366;2022-08-24T08:20:18;5.15;;;3.45;;
66593;SDS011;53450;42.584;23.366;2022-08-24T08:22:44;5.28;;;3.55;;
66593;SDS011;53450;42.584;23.366;2022-08-24T08:25:53;8.43;;;4.78;;
66593;SDS011;53450;42.584;23.366;2022-08-24T08:28:38;12.52;;;5.15;;
66593;SDS011;53450;42.584;23.366;2022-08-24T08:31:06;6.13;;;4.07;;
66593;SDS011;53450;42.584;23.366;2022-08-24T08:33:32;6.55;;;4.53;;
66593;SDS011;53450;42.584;23.366;2022-08-24T08:36:02;9.25;;;4.65;;
66593;SDS011;53450;42.584;23.366;2022-08-24T08:38:37;9.88;;;4.72;;
66593;SDS011;53450;42.584;23.366;2022-08-24T08:54:52;11.02;;;4.57;;
66593;SDS011;53450;42.584;23.366;2022-08-24T08:57:30;8.13;;;4.80;;
66593;SDS011;53450;42.584;23.366;2022-08-24T09:06:14;12.32;;;5.15;;
66593;SDS011;53450;42.584;23.366;2022-08-24T09:09:22;10.05;;;4.97;;
66593;SDS011;53450;42.584;23.366;2022-08-24T09:17:54;13.30;;;5.00;;
66593;SDS011;53450;42.584;23.366;2022-08-24T09:29:17;8.02;;;4.60;;
66593;SDS011;53450;42.584;23.366;2022-08-24T09:32:19;7.88;;;4.80;;
66593;SDS011;53450;42.584;23.366;2022-08-24T09:35:12;7.90;;;4.97;;
66593;SDS011;53450;42.584;23.366;2022-08-24T09:51:21;6.65;;;4.40;;
66593;SDS011;53450;42.584;23.366;2022-08-24T09:59:51;11.23;;;5.43;;
66593;SDS011;53450;42.584;23.366;2022-08-24T10:05:17;6.50;;;4.68;;
66593;SDS011;53450;42.584;23.366;2022-08-24T10:07:56;9.70;;;4.57;;
66593;SDS011;53450;42.584;23.366;2022-08-24T10:24:10;8.18;;;4.55;;
66593;SDS011;53450;42.584;23.366;2022-08-24T10:29:21;10.25;;;4.82;;
66593;SDS011;53450;42.584;23.366;2022-08-24T10:35:16;10.02;;;5.22;;
66593;SDS011;53450;42.584;23.366;2022-08-24T10:47:10;9.63;;;4.68;;
66593;SDS011;53450;42.584;23.366;2022-08-24T10:52:52;10.93;;;4.93;;
66593;SDS011;53450;42.584;23.366;2022-08-24T10:55:27;7.32;;;4.50;;
66593;SDS011;53450;42.584;23.366;2022-08-24T11:00:54;13.27;;;5.90;;
66593;SDS011;53450;42.584;23.366;2022-08-24T11:03:20;12.50;;;5.30;;
66593;SDS011;53450;42.584;23.366;2022-08-24T11:05:54;12.52;;;5.75;;
66593;SDS011;53450;42.584;23.366;2022-08-24T11:08:25;8.33;;;4.80;;
66593;SDS011;53450;42.584;23.366;2022-08-24T11:13:35;7.85;;;5.13;;
66593;SDS011;53450;42.584;23.366;2022-08-24T11:16:39;7.85;;;5.05;;
66593;SDS011;53450;42.584;23.366;2022-08-24T11:19:12;7.40;;;4.90;;
66593;SDS011;53450;42.584;23.366;2022-08-24T11:26:53;6.68;;;5.05;;
66593;SDS011;53450;42.584;23.366;2022-08-24T11:29:25;30.25;;;5.82;;
66593;SDS011;53450;42.584;23.366;2022-08-24T11:31:55;10.30;;;5.22;;
66593;SDS011;53450;42.584;23.366;2022-08-24T11:34:31;7.78;;;5.10;;
66593;SDS011;53450;42.584;23.366;2022-08-24T11:36:59;17.65;;;5.80;;
66593;SDS011;53450;42.584;23.366;2022-08-24T11:39:26;9.05;;;4.68;;
66593;SDS011;53450;42.584;23.366;2022-08-24T11:44:37;6.97;;;4.97;;
66593;SDS011;53450;42.584;23.366;2022-08-24T12:01:05;7.45;;;4.97;;
66593;SDS011;53450;42.584;23.366;2022-08-24T12:03:42;7.95;;;5.05;;
66593;SDS011;53450;42.584;23.366;2022-08-24T12:09:21;13.43;;;5.70;;
66593;SDS011;53450;42.584;23.366;2022-08-24T12:18:14;9.52;;;5.25;;
66593;SDS011;53450;42.584;23.366;2022-08-24T12:20:46;8.82;;;4.93;;
66593;SDS011;53450;42.584;23.366;2022-08-24T12:23:23;9.65;;;6.07;;
66593;SDS011;53450;42.584;23.366;2022-08-24T12:26:36;12.73;;;5.78;;
66593;SDS011;53450;42.584;23.366;2022-08-24T12:28:59;14.52;;;7.35;;
66593;SDS011;53450;42.584;23.366;2022-08-24T12:31:44;12.30;;;5.80;;
66593;SDS011;53450;42.584;23.366;2022-08-24T12:34:52;10.13;;;6.22;;
66593;SDS011;53450;42.584;23.366;2022-08-24T12:40:46;11.67;;;5.70;;
66593;SDS011;53450;42.584;23.366;2022-08-24T12:43:19;11.52;;;6.03;;
66593;SDS011;53450;42.584;23.366;2022-08-24T12:45:49;9.15;;;5.30;;
66593;SDS011;53450;42.584;23.366;2022-08-24T12:51:03;16.10;;;6.25;;
66593;SDS011;53450;42.584;23.366;2022-08-24T12:56:54;17.50;;;5.53;;
66593;SDS011;53450;42.584;23.366;2022-08-24T12:59:45;11.20;;;4.95;;
66593;SDS011;53450;42.584;23.366;2022-08-24T13:09:46;9.98;;;5.50;;
66593;SDS011;53450;42.584;23.366;2022-08-24T13:20:56;7.80;;;5.95;;
66593;SDS011;53450;42.584;23.366;2022-08-24T13:23:19;11.05;;;6.00;;
66593;SDS011;53450;42.584;23.366;2022-08-24T13:33:18;9.95;;;5.82;;
66593;SDS011;53450;42.584;23.366;2022-08-24T13:36:00;7.95;;;5.82;;
66593;SDS011;53450;42.584;23.366;2022-08-24T13:40:57;13.90;;;6.60;;
66593;SDS011;53450;42.584;23.366;2022-08-24T13:46:20;9.82;;;5.97;;
66593;SDS011;53450;42.584;23.366;2022-08-24T13:48:57;12.00;;;6.43;;
66593;SDS011;53450;42.584;23.366;2022-08-24T13:51:38;12.38;;;5.72;;
66593;SDS011;53450;42.584;23.366;2022-08-24T13:54:28;13.77;;;5.63;;
66593;SDS011;53450;42.584;23.366;2022-08-24T13:56:58;14.85;;;6.85;;
66593;SDS011;53450;42.584;23.366;2022-08-24T14:05:34;12.35;;;6.32;;
66593;SDS011;53450;42.584;23.366;2022-08-24T14:11:09;13.25;;;6.78;;
66593;SDS011;53450;42.584;23.366;2022-08-24T14:13:44;17.77;;;6.53;;
66593;SDS011;53450;42.584;23.366;2022-08-24T14:19:46;11.30;;;5.95;;
66593;SDS011;53450;42.584;23.366;2022-08-24T14:33:11;13.15;;;6.50;;
66593;SDS011;53450;42.584;23.366;2022-08-24T14:35:55;13.48;;;6.30;;
66593;SDS011;53450;42.584;23.366;2022-08-24T14:41:20;12.50;;;7.47;;
66593;SDS011;53450;42.584;23.366;2022-08-24T14:44:01;20.83;;;7.10;;
66593;SDS011;53450;42.584;23.366;2022-08-24T14:47:25;21.35;;;6.65;;
66593;SDS011;53450;42.584;23.366;2022-08-24T14:50:18;13.75;;;6.90;;
66593;SDS011;53450;42.584;23.366;2022-08-24T14:55:51;19.75;;;6.88;;
66593;SDS011;53450;42.584;23.366;2022-08-24T15:06:46;13.23;;;5.53;;
66593;SDS011;53450;42.584;23.366;2022-08-24T15:09:29;15.20;;;5.60;;
66593;SDS011;53450;42.584;23.366;2022-08-24T15:12:08;13.25;;;5.10;;
66593;SDS011;53450;42.584;23.366;2022-08-24T15:14:45;21.83;;;6.35;;
66593;SDS011;53450;42.584;23.366;2022-08-24T15:17:16;12.75;;;6.03;;
66593;SDS011;53450;42.584;23.366;2022-08-24T15:20:36;15.93;;;5.70;;
66593;SDS011;53450;42.584;23.366;2022-08-24T15:22:59;14.80;;;5.40;;
66593;SDS011;53450;42.584;23.366;2022-08-24T15:25:35;21.08;;;6.28;;
66593;SDS011;53450;42.584;23.366;2022-08-24T15:28:25;22.52;;;6.07;;
66593;SDS011;53450;42.584;23.366;2022-08-24T15:30:54;16.30;;;5.75;;
66593;SDS011;53450;42.584;23.366;2022-08-24T15:33:26;26.35;;;5.93;;
66593;SDS011;53450;42.584;23.366;2022-08-24T15:36:18;23.63;;;5.82;;
66593;SDS011;53450;42.584;23.366;2022-08-24T15:38:44;16.80;;;7.13;;
66593;SDS011;53450;42.584;23.366;2022-08-24T15:41:11;20.70;;;6.15;;
66593;SDS011;53450;42.584;23.366;2022-08-24T15:43:57;26.70;;;6.22;;
66593;SDS011;53450;42.584;23.366;2022-08-24T15:46:27;17.50;;;6.57;;
66593;SDS011;53450;42.584;23.366;2022-08-24T15:49:02;18.40;;;6.82;;
66593;SDS011;53450;42.584;23.366;2022-08-24T15:56:47;21.63;;;7.90;;
66593;SDS011;53450;42.584;23.366;2022-08-24T16:24:05;33.03;;;8.95;;
66593;SDS011;53450;42.584;23.366;2022-08-24T16:34:53;43.50;;;8.70;;
66593;SDS011;53450;42.584;23.366;2022-08-24T16:37:37;29.98;;;8.75;;
66593;SDS011;53450;42.584;23.366;2022-08-24T16:40:04;27.73;;;8.63;;
66593;SDS011;53450;42.584;23.366;2022-08-24T16:42:30;25.25;;;8.57;;
66593;SDS011;53450;42.584;23.366;2022-08-24T16:44:56;45.90;;;8.38;;
66593;SDS011;53450;42.584;23.366;2022-08-24T16:47:23;24.88;;;7.63;;
66593;SDS011;53450;42.584;23.366;2022-08-24T16:49:50;37.20;;;9.32;;
66593;SDS011;53450;42.584;23.366;2022-08-24T16:52:25;30.73;;;10.15;;
66593;SDS011;53450;42.584;23.366;2022-08-24T16:54:51;35.10;;;10.30;;
66593;SDS011;53450;42.584;23.366;2022-08-24T16:57:25;35.10;;;8.90;;
66593;SDS011;53450;42.584;23.366;2022-08-24T17:00:12;34.40;;;8.23;;
66593;SDS011;53450;42.584;23.366;2022-08-24T17:02:42;37.72;;;8.15;;
66593;SDS011;53450;42.584;23.366;2022-08-24T17:05:09;31.08;;;8.82;;
66593;SDS011;53450;42.584;23.366;2022-08-24T17:07:35;35.95;;;8.98;;
66593;SDS011;53450;42.584;23.366;2022-08-24T17:10:02;33.80;;;8.93;;
66593;SDS011;53450;42.584;23.366;2022-08-24T17:12:29;38.17;;;8.75;;
66593;SDS011;53450;42.584;23.366;2022-08-24T17:14:55;40.97;;;8.98;;
66593;SDS011;53450;42.584;23.366;2022-08-24T17:17:22;42.33;;;7.88;;
66593;SDS011;53450;42.584;23.366;2022-08-24T17:20:15;34.67;;;7.78;;
66593;SDS011;53450;42.584;23.366;2022-08-24T17:22:40;38.50;;;9.82;;
66593;SDS011;53450;42.584;23.366;2022-08-24T17:25:06;38.42;;;9.10;;
66593;SDS011;53450;42.584;23.366;2022-08-24T17:27:32;46.22;;;9.25;;
66593;SDS011;53450;42.584;23.366;2022-08-24T17:29:58;26.00;;;8.52;;
66593;SDS011;53450;42.584;23.366;2022-08-24T17:32:25;34.85;;;8.38;;
66593;SDS011;53450;42.584;23.366;2022-08-24T17:34:51;44.90;;;8.57;;
66593;SDS011;53450;42.584;23.366;2022-08-24T17:37:17;32.72;;;9.15;;
66593;SDS011;53450;42.584;23.366;2022-08-24T17:39:52;39.17;;;9.68;;
66593;SDS011;53450;42.584;23.366;2022-08-24T17:42:20;28.95;;;8.15;;
66593;SDS011;53450;42.584;23.366;2022-08-24T17:44:45;40.22;;;8.75;;
66593;SDS011;53450;42.584;23.366;2022-08-24T17:47:11;34.28;;;9.02;;
66593;SDS011;53450;42.584;23.366;2022-08-24T17:49:37;42.92;;;8.98;;
66593;SDS011;53450;42.584;23.366;2022-08-24T17:52:03;50.03;;;8.52;;
66593;SDS011;53450;42.584;23.366;2022-08-24T17:54:29;44.45;;;9.50;;
66593;SDS011;53450;42.584;23.366;2022-08-24T17:56:55;42.85;;;9.40;;
66593;SDS011;53450;42.584;23.366;2022-08-24T17:59:24;32.00;;;9.50;;
66593;SDS011;53450;42.584;23.366;2022-08-24T18:02:01;26.10;;;9.10;;
66593;SDS011;53450;42.584;23.366;2022-08-24T18:04:29;38.70;;;10.95;;
66593;SDS011;53450;42.584;23.366;2022-08-24T18:06:58;35.35;;;11.93;;
66593;SDS011;53450;42.584;23.366;2022-08-24T18:09:38;33.40;;;12.63;;
66593;SDS011;53450;42.584;23.366;2022-08-24T18:12:07;32.15;;;11.55;;
66593;SDS011;53450;42.584;23.366;2022-08-24T18:14:33;32.20;;;11.35;;
66593;SDS011;53450;42.584;23.366;2022-08-24T18:17:04;35.35;;;10.88;;
66593;SDS011;53450;42.584;23.366;2022-08-24T18:19:32;42.67;;;11.43;;
66593;SDS011;53450;42.584;23.366;2022-08-24T18:21:58;35.75;;;10.27;;
66593;SDS011;53450;42.584;23.366;2022-08-24T18:24:26;45.20;;;9.98;;
66593;SDS011;53450;42.584;23.366;2022-08-24T18:27:03;28.50;;;8.03;;
66593;SDS011;53450;42.584;23.366;2022-08-24T18:29:31;23.05;;;8.48;;
66593;SDS011;53450;42.584;23.366;2022-08-24T18:31:57;47.85;;;9.15;;
66593;SDS011;53450;42.584;23.366;2022-08-24T18:34:24;35.50;;;8.68;;
66593;SDS011;53450;42.584;23.366;2022-08-24T18:36:50;37.17;;;8.10;;
66593;SDS011;53450;42.584;23.366;2022-08-24T18:39:16;27.95;;;7.95;;
66593;SDS011;53450;42.584;23.366;2022-08-24T18:41:43;28.17;;;7.93;;
66593;SDS011;53450;42.584;23.366;2022-08-24T18:44:11;28.30;;;8.15;;
66593;SDS011;53450;42.584;23.366;2022-08-24T18:46:40;27.30;;;7.40;;
66593;SDS011;53450;42.584;23.366;2022-08-24T18:49:05;34.58;;;8.40;;
66593;SDS011;53450;42.584;23.366;2022-08-24T18:51:32;46.10;;;10.25;;
66593;SDS011;53450;42.584;23.366;2022-08-24T18:54:01;43.80;;;8.65;;